createdAt,value
2018-12-02T00:00:27.476Z,10.03
2018-12-02T00:02:57.341Z,9.73
2018-12-02T00:05:26.450Z,10.30
2018-12-02T00:07:55.956Z,9.98
2018-12-02T00:10:25.093Z,10.60
2018-12-02T00:12:54.357Z,10.35
2018-12-02T00:15:25.600Z,10.13
2018-12-02T00:17:56.241Z,10.65
2018-12-02T00:20:25.015Z,10.05
2018-12-02T00:22:53.908Z,10.05
2018-12-02T00:25:22.606Z,9.83
2018-12-02T00:27:53.732Z,9.68
2018-12-02T00:30:24.213Z,9.98
2018-12-02T00:32:53.202Z,9.63
2018-12-02T00:35:22.196Z,9.78
2018-12-02T00:37:52.293Z,10.05
2018-12-02T00:40:21.463Z,10.43
2018-12-02T00:42:52.706Z,10.00
2018-12-02T00:45:22.856Z,9.48
2018-12-02T00:47:51.502Z,9.30
2018-12-02T00:50:20.134Z,9.95
2018-12-02T00:52:49.523Z,9.63
2018-12-02T00:55:21.846Z,9.68
2018-12-02T00:57:50.430Z,9.78
2018-12-02T01:00:19.204Z,9.38
2018-12-02T01:02:49.877Z,9.33
2018-12-02T01:05:18.952Z,9.93
2018-12-02T01:07:47.838Z,9.38
2018-12-02T01:10:17.494Z,9.28
2018-12-02T01:12:47.572Z,9.28
2018-12-02T01:15:16.931Z,9.28
2018-12-02T01:17:45.531Z,9.58
2018-12-02T01:20:17.715Z,9.28
2018-12-02T01:22:46.395Z,9.35
2018-12-02T01:25:15.224Z,9.08
2018-12-02T01:27:45.336Z,9.05
2018-12-02T01:30:22.480Z,9.78
2018-12-02T01:32:51.563Z,9.60
2018-12-02T01:35:20.144Z,9.43
2018-12-02T01:37:48.750Z,9.50
2018-12-02T01:40:19.920Z,9.00
2018-12-02T01:42:49.028Z,9.25
2018-12-02T01:45:21.306Z,9.28
2018-12-02T01:47:49.946Z,9.03
2018-12-02T01:50:20.986Z,9.00
2018-12-02T01:52:51.927Z,8.83
2018-12-02T01:55:20.555Z,8.70
2018-12-02T01:57:49.190Z,8.73
2018-12-02T02:00:19.190Z,9.10
2018-12-02T02:02:47.866Z,8.75
2018-12-02T02:05:16.861Z,9.00
2018-12-02T02:07:46.262Z,9.15
2018-12-02T02:10:17.540Z,8.93
2018-12-02T02:12:46.180Z,9.23
2018-12-02T02:15:15.177Z,8.45
2018-12-02T02:17:44.354Z,9.03
2018-12-02T02:20:15.302Z,9.10
2018-12-02T02:22:45.388Z,8.68
2018-12-02T02:25:14.747Z,8.93
2018-12-02T02:27:44.062Z,8.70
2018-12-02T02:30:15.210Z,8.23
2018-12-02T02:32:43.918Z,8.95
2018-12-02T02:35:14.049Z,8.85
2018-12-02T02:37:42.821Z,8.55
2018-12-02T02:40:12.859Z,8.85
2018-12-02T02:42:41.701Z,8.53
2018-12-02T02:45:10.579Z,8.70
2018-12-02T02:47:39.264Z,8.33
2018-12-02T02:50:24.248Z,8.50
2018-12-02T02:52:56.218Z,9.05
2018-12-02T02:55:26.655Z,8.68
2018-12-02T02:57:56.649Z,8.85
2018-12-02T03:00:25.699Z,8.33
2018-12-02T03:02:54.303Z,9.20
2018-12-02T03:05:23.072Z,8.50
2018-12-02T03:07:51.980Z,8.23
2018-12-02T03:10:21.225Z,8.75
2018-12-02T03:12:51.036Z,8.18
2018-12-02T03:15:21.197Z,8.40
2018-12-02T03:17:49.758Z,8.80
2018-12-02T03:20:18.762Z,8.78
2018-12-02T03:22:49.101Z,8.83
2018-12-02T03:25:18.175Z,8.70
2018-12-02T03:27:46.872Z,8.58
2018-12-02T03:30:16.102Z,7.87
2018-12-02T03:32:45.292Z,8.00
2018-12-02T03:35:14.213Z,8.90
2018-12-02T03:37:43.164Z,8.80
2018-12-02T03:40:14.232Z,8.43
2018-12-02T03:42:42.878Z,8.88
2018-12-02T03:45:12.915Z,8.58
2018-12-02T03:47:41.730Z,8.20
2018-12-02T03:50:17.745Z,8.35
2018-12-02T03:52:44.888Z,8.00
2018-12-02T03:55:13.551Z,8.25
2018-12-02T03:57:43.570Z,8.45
2018-12-02T04:00:15.762Z,7.87
2018-12-02T04:02:44.446Z,8.88
2018-12-02T04:05:13.873Z,8.00
2018-12-02T04:07:42.529Z,8.03
2018-12-02T04:10:12.470Z,8.70
2018-12-02T04:12:41.006Z,8.40
2018-12-02T04:15:10.586Z,7.95
2018-12-02T04:17:39.200Z,8.38
2018-12-02T04:20:08.612Z,8.13
2018-12-02T04:22:38.279Z,8.38
2018-12-02T04:25:11.505Z,8.40
2018-12-02T04:27:41.026Z,8.70
2018-12-02T04:30:11.690Z,8.18
2018-12-02T04:32:40.506Z,8.33
2018-12-02T04:35:10.873Z,8.25
2018-12-02T04:37:39.544Z,8.13
2018-12-02T04:40:10.832Z,8.48
2018-12-02T04:42:39.314Z,8.43
2018-12-02T04:45:15.785Z,8.03
2018-12-02T04:47:44.578Z,8.55
2018-12-02T04:50:18.770Z,7.90
2018-12-02T04:52:47.351Z,7.65
2018-12-02T04:55:17.486Z,7.75
2018-12-02T04:57:47.012Z,7.62
2018-12-02T05:00:16.766Z,8.30
2018-12-02T05:02:46.334Z,7.47
2018-12-02T05:05:15.538Z,7.60
2018-12-02T05:07:44.156Z,7.75
2018-12-02T05:10:16.280Z,8.13
2018-12-02T05:12:46.057Z,8.05
2018-12-02T05:15:15.973Z,7.90
2018-12-02T05:17:44.593Z,7.80
2018-12-02T05:20:15.216Z,7.85
2018-12-02T05:22:43.774Z,7.80
2018-12-02T05:25:17.638Z,7.65
2018-12-02T05:27:42.759Z,6.92
2018-12-02T05:30:14.836Z,7.87
2018-12-02T05:32:44.255Z,7.12
2018-12-02T05:35:13.428Z,7.45
2018-12-02T05:37:42.702Z,8.05
2018-12-02T05:40:15.079Z,7.62
2018-12-02T05:42:45.237Z,7.70
2018-12-02T05:45:14.394Z,7.75
2018-12-02T05:47:44.242Z,7.30
2018-12-02T05:50:14.041Z,7.03
2018-12-02T05:52:43.009Z,7.33
2018-12-02T05:55:12.350Z,7.10
2018-12-02T05:57:41.703Z,7.67
2018-12-02T06:00:11.143Z,7.35
2018-12-02T06:02:41.074Z,6.90
2018-12-02T06:05:10.589Z,7.30
2018-12-02T06:07:39.317Z,6.80
2018-12-02T06:10:11.554Z,7.12
2018-12-02T06:12:41.821Z,6.92
2018-12-02T06:15:12.219Z,7.33
2018-12-02T06:17:40.947Z,6.60
2018-12-02T06:20:13.556Z,7.12
2018-12-02T06:22:44.289Z,6.85
2018-12-02T06:25:14.339Z,6.80
2018-12-02T06:27:44.207Z,7.03
2018-12-02T06:30:14.685Z,6.85
2018-12-02T06:32:43.891Z,6.92
2018-12-02T06:35:14.459Z,6.72
2018-12-02T06:37:44.592Z,7.10
2018-12-02T06:40:13.983Z,7.08
2018-12-02T06:42:42.621Z,7.30
2018-12-02T06:45:13.312Z,6.67
2018-12-02T06:47:41.933Z,6.95
2018-12-02T06:50:12.172Z,6.80
2018-12-02T06:52:41.257Z,7.00
2018-12-02T06:55:21.962Z,6.75
2018-12-02T06:57:57.161Z,6.90
2018-12-02T07:01:00.912Z,6.70
2018-12-02T07:03:50.466Z,6.70
2018-12-02T07:06:19.460Z,6.25
2018-12-02T07:08:48.796Z,7.10
2018-12-02T07:11:17.509Z,6.72
2018-12-02T07:13:45.987Z,6.35
2018-12-02T07:16:14.617Z,6.30
2018-12-02T07:18:47.519Z,6.20
2018-12-02T07:21:18.599Z,6.50
2018-12-02T07:23:50.491Z,6.67
2018-12-02T07:26:21.764Z,6.45
2018-12-02T07:28:50.851Z,6.47
2018-12-02T07:31:19.587Z,6.45
2018-12-02T07:33:49.807Z,6.30
2018-12-02T07:36:18.508Z,5.83
2018-12-02T07:38:51.588Z,6.75
2018-12-02T07:41:20.150Z,6.37
2018-12-02T07:43:49.556Z,6.40
2018-12-02T07:46:18.219Z,6.45
2018-12-02T07:48:47.105Z,6.47
2018-12-02T07:51:18.164Z,6.33
2018-12-02T07:53:46.860Z,6.53
2018-12-02T07:56:15.713Z,6.40
2018-12-02T07:58:44.334Z,6.47
2018-12-02T08:01:13.015Z,6.75
2018-12-02T08:03:42.436Z,6.17
2018-12-02T08:06:12.574Z,6.67
2018-12-02T08:08:42.665Z,6.60
2018-12-02T08:11:11.516Z,6.50
2018-12-02T08:13:40.982Z,6.50
2018-12-02T08:16:10.081Z,6.30
2018-12-02T08:18:39.355Z,6.40
2018-12-02T08:21:08.138Z,6.72
2018-12-02T08:23:38.785Z,6.30
2018-12-02T08:26:08.574Z,6.30
2018-12-02T08:28:38.142Z,6.67
2018-12-02T08:31:08.005Z,6.72
2018-12-02T08:33:37.126Z,6.83
2018-12-02T08:36:07.207Z,6.92
2018-12-02T08:38:36.371Z,6.50
2018-12-02T08:41:06.367Z,7.00
2018-12-02T08:43:35.628Z,6.80
2018-12-02T08:46:05.054Z,6.65
2018-12-02T08:48:34.437Z,6.70
2018-12-02T08:51:03.631Z,7.08
2018-12-02T08:53:32.416Z,7.00
2018-12-02T08:56:01.040Z,6.42
2018-12-02T08:58:30.370Z,6.47
2018-12-02T09:00:59.301Z,7.05
2018-12-02T09:03:27.965Z,6.90
2018-12-02T09:05:56.541Z,6.90
2018-12-02T09:08:25.571Z,7.20
2018-12-02T09:10:56.734Z,7.22
2018-12-02T09:13:25.643Z,7.53
2018-12-02T09:15:55.627Z,7.53
2018-12-02T09:18:24.428Z,7.33
2018-12-02T09:20:53.775Z,7.55
2018-12-02T09:23:23.716Z,7.70
2018-12-02T09:25:53.830Z,7.33
2018-12-02T09:28:23.480Z,7.65
2018-12-02T09:30:52.296Z,7.83
2018-12-02T09:33:22.633Z,7.92
2018-12-02T09:35:52.184Z,7.97
2018-12-02T09:38:21.444Z,7.85
2018-12-02T09:40:51.579Z,8.40
2018-12-02T09:43:21.715Z,8.20
2018-12-02T09:45:50.438Z,7.95
2018-12-02T09:48:19.891Z,8.00
2018-12-02T09:50:49.266Z,7.92
2018-12-02T09:53:18.660Z,7.97
2018-12-02T09:55:49.199Z,8.48
2018-12-02T09:58:26.284Z,8.38
2018-12-02T10:00:57.732Z,8.25
2018-12-02T10:03:26.880Z,8.30
2018-12-02T10:05:56.278Z,8.65
2018-12-02T10:08:26.089Z,9.05
2018-12-02T10:10:55.593Z,8.20
2018-12-02T10:13:24.753Z,8.90
2018-12-02T10:15:54.093Z,8.83
2018-12-02T10:18:23.766Z,8.75
2018-12-02T10:20:55.450Z,8.68
2018-12-02T10:23:24.807Z,9.30
2018-12-02T10:25:56.214Z,9.45
2018-12-02T10:28:25.015Z,9.20
2018-12-02T10:30:56.276Z,9.38
2018-12-02T10:33:25.281Z,9.53
2018-12-02T10:35:56.544Z,9.63
2018-12-02T10:38:25.402Z,9.78
2018-12-02T10:40:56.148Z,9.70
2018-12-02T10:43:27.091Z,9.75
2018-12-02T10:45:57.487Z,9.18
2018-12-02T10:48:26.542Z,9.35
2018-12-02T10:50:55.877Z,9.83
2018-12-02T10:53:25.556Z,9.28
2018-12-02T10:55:56.276Z,9.00
2018-12-02T10:58:26.478Z,9.43
2018-12-02T11:01:04.695Z,9.10
2018-12-02T11:03:34.627Z,9.45
2018-12-02T11:06:04.045Z,9.53
2018-12-02T11:08:33.451Z,8.93
2018-12-02T11:11:02.658Z,9.40
2018-12-02T11:13:31.830Z,9.75
2018-12-02T11:16:02.358Z,9.15
2018-12-02T11:18:31.397Z,9.13
2018-12-02T11:21:01.175Z,9.58
2018-12-02T11:23:30.546Z,9.88
2018-12-02T11:25:59.500Z,9.40
2018-12-02T11:28:28.832Z,9.78
2018-12-02T11:30:58.283Z,9.93
2018-12-02T11:33:27.127Z,10.35
2018-12-02T11:35:56.736Z,9.60
2018-12-02T11:38:25.571Z,10.40
2018-12-02T11:40:55.801Z,9.78
2018-12-02T11:43:25.970Z,10.03
2018-12-02T11:45:57.299Z,9.58
2018-12-02T11:48:25.840Z,9.83
2018-12-02T11:50:55.085Z,10.08
2018-12-02T11:53:23.747Z,10.93
2018-12-02T11:55:52.586Z,10.95
2018-12-02T11:58:21.313Z,10.72
2018-12-02T12:00:51.061Z,10.35
2018-12-02T12:03:21.312Z,10.80
2018-12-02T12:05:50.077Z,10.40
2018-12-02T12:08:18.756Z,10.70
2018-12-02T12:10:47.503Z,10.90
2018-12-02T12:13:16.896Z,11.05
2018-12-02T12:15:45.799Z,10.72
2018-12-02T12:18:15.928Z,10.25
2018-12-02T12:20:44.732Z,10.82
2018-12-02T12:23:14.499Z,10.38
2018-12-02T12:25:43.227Z,11.03
2018-12-02T12:28:12.738Z,10.80
2018-12-02T12:30:41.582Z,10.82
2018-12-02T12:33:11.006Z,10.68
2018-12-02T12:35:41.002Z,11.00
2018-12-02T12:38:11.541Z,10.00
2018-12-02T12:40:41.189Z,10.58
2018-12-02T12:43:14.139Z,10.80
2018-12-02T12:45:43.353Z,11.00
2018-12-02T12:48:13.393Z,11.03
2018-12-02T12:50:44.667Z,11.78
2018-12-02T12:53:17.907Z,11.00
2018-12-02T12:55:50.862Z,10.95
2018-12-02T12:58:17.974Z,11.03
2018-12-02T13:00:48.914Z,11.53
2018-12-02T13:03:20.102Z,10.72
2018-12-02T13:05:49.888Z,10.93
2018-12-02T13:08:20.541Z,11.28
2018-12-02T13:10:50.561Z,11.08
2018-12-02T13:13:20.459Z,11.05
2018-12-02T13:15:51.005Z,11.78
2018-12-02T13:18:21.286Z,10.82
2018-12-02T13:20:54.836Z,11.38
2018-12-02T13:23:25.723Z,11.40
2018-12-02T13:25:57.231Z,11.30
2018-12-02T13:28:28.091Z,11.20
2018-12-02T13:30:58.477Z,11.28
2018-12-02T13:33:28.724Z,10.98
2018-12-02T13:35:58.819Z,11.15
2018-12-02T13:38:30.696Z,11.00
2018-12-02T13:41:00.760Z,11.30
2018-12-02T13:43:30.899Z,11.50
2018-12-02T13:46:00.329Z,11.50
2018-12-02T13:48:29.119Z,11.90
2018-12-02T13:50:58.830Z,11.68
2018-12-02T13:53:36.727Z,11.68
2018-12-02T13:56:05.821Z,11.35
2018-12-02T13:58:34.734Z,11.43
2018-12-02T14:01:04.917Z,11.28
2018-12-02T14:03:35.087Z,12.15
2018-12-02T14:06:04.050Z,11.43
2018-12-02T14:08:35.137Z,11.05
2018-12-02T14:11:04.057Z,11.73
2018-12-02T14:13:33.410Z,11.28
2018-12-02T14:16:36.788Z,11.22
2018-12-02T14:19:08.243Z,11.73
2018-12-02T14:21:39.079Z,11.68
2018-12-02T14:24:08.835Z,11.45
2018-12-02T14:26:38.451Z,12.00
2018-12-02T14:29:09.723Z,11.78
2018-12-02T14:31:39.256Z,12.20
2018-12-02T14:34:08.408Z,12.00
2018-12-02T14:36:37.660Z,12.05
2018-12-02T14:39:10.955Z,12.18
2018-12-02T14:41:39.984Z,12.35
2018-12-02T14:44:09.413Z,12.30
2018-12-02T14:46:39.154Z,12.18
2018-12-02T14:49:11.084Z,11.80
2018-12-02T14:51:40.826Z,11.80
2018-12-02T14:54:10.225Z,11.45
2018-12-02T14:56:39.359Z,12.37
2018-12-02T14:59:08.559Z,12.07
2018-12-02T15:01:39.148Z,11.73
2018-12-02T15:04:09.518Z,12.82
2018-12-02T15:06:40.867Z,11.93
2018-12-02T15:09:10.740Z,12.10
2018-12-02T15:11:40.335Z,12.25
2018-12-02T15:14:10.839Z,12.10
2018-12-02T15:16:40.181Z,12.05
2018-12-02T15:19:10.321Z,12.15
2018-12-02T15:21:39.790Z,11.83
2018-12-02T15:24:08.898Z,11.97
2018-12-02T15:26:37.567Z,11.80
2018-12-02T15:29:06.373Z,11.53
2018-12-02T15:31:35.348Z,11.88
2018-12-02T15:34:05.533Z,12.23
2018-12-02T15:36:34.311Z,11.48
2018-12-02T15:39:03.955Z,12.13
2018-12-02T15:41:33.130Z,11.22
2018-12-02T15:44:02.202Z,11.40
2018-12-02T15:46:32.577Z,11.45
2018-12-02T15:49:02.348Z,10.72
2018-12-02T15:51:32.363Z,10.78
2018-12-02T15:54:01.063Z,11.10
2018-12-02T15:56:29.967Z,11.10
2018-12-02T15:59:00.823Z,11.05
2018-12-02T16:01:33.983Z,11.05
2018-12-02T16:04:03.219Z,11.35
2018-12-02T16:06:33.993Z,10.93
2018-12-02T16:09:03.236Z,10.72
2018-12-02T16:11:32.761Z,11.28
2018-12-02T16:14:01.673Z,11.03
2018-12-02T16:16:38.197Z,11.22
2018-12-02T16:19:07.788Z,10.23
2018-12-02T16:21:37.891Z,10.43
2018-12-02T16:24:07.906Z,10.55
2018-12-02T16:26:36.879Z,10.75
2018-12-02T16:29:06.247Z,10.30
2018-12-02T16:31:36.038Z,10.15
2018-12-02T16:34:05.967Z,10.32
2018-12-02T16:36:35.889Z,10.40
2018-12-02T16:39:09.499Z,9.98
2018-12-02T16:41:40.037Z,10.58
2018-12-02T16:44:08.827Z,9.95
2018-12-02T16:46:38.720Z,10.00
2018-12-02T16:49:08.862Z,10.00
2018-12-02T16:51:37.753Z,10.08
2018-12-02T16:54:06.999Z,10.30
2018-12-02T16:56:37.642Z,10.70
2018-12-02T16:59:16.186Z,9.73
2018-12-02T17:01:46.112Z,9.70
2018-12-02T17:04:16.410Z,9.25
2018-12-02T17:06:45.425Z,10.25
2018-12-02T17:09:14.512Z,9.70
2018-12-02T17:11:45.336Z,9.80
2018-12-02T17:14:14.736Z,10.00
2018-12-02T17:16:45.113Z,9.15
2018-12-02T17:19:14.758Z,9.23
2018-12-02T17:21:45.720Z,9.58
2018-12-02T17:24:14.445Z,9.93
2018-12-02T17:26:44.668Z,9.93
2018-12-02T17:29:15.601Z,9.50
2018-12-02T17:31:47.460Z,8.98
2018-12-02T17:34:19.231Z,9.45
2018-12-02T17:36:49.546Z,9.13
2018-12-02T17:39:22.498Z,9.70
2018-12-02T17:42:00.829Z,9.43
2018-12-02T17:44:31.419Z,8.90
2018-12-02T17:47:01.895Z,9.13
2018-12-02T17:49:30.718Z,9.03
2018-12-02T17:52:00.681Z,9.10
2018-12-02T17:54:29.554Z,9.03
2018-12-02T17:56:59.996Z,9.10
2018-12-02T17:59:29.233Z,8.85
2018-12-02T18:01:58.049Z,9.28
2018-12-02T18:04:26.957Z,9.10
2018-12-02T18:06:56.493Z,8.78
2018-12-02T18:09:26.250Z,8.18
2018-12-02T18:11:55.861Z,8.48
2018-12-02T18:14:24.648Z,8.53
2018-12-02T18:16:54.022Z,8.30
2018-12-02T18:19:22.770Z,8.88
2018-12-02T18:21:51.480Z,8.53
2018-12-02T18:24:21.362Z,8.05
2018-12-02T18:26:50.543Z,8.90
2018-12-02T18:29:20.112Z,9.05
2018-12-02T18:31:48.978Z,8.35
2018-12-02T18:34:17.714Z,8.13
2018-12-02T18:36:47.104Z,8.10
2018-12-02T18:39:17.170Z,7.58
2018-12-02T18:41:47.915Z,8.68
2018-12-02T18:44:17.999Z,8.20
2018-12-02T18:46:46.885Z,7.78
2018-12-02T18:49:15.672Z,8.38
2018-12-02T18:51:44.496Z,8.05
2018-12-02T18:54:13.375Z,8.30
2018-12-02T18:56:42.468Z,7.45
2018-12-02T18:59:11.569Z,7.75
2018-12-02T19:01:42.169Z,7.45
2018-12-02T19:04:11.436Z,7.85
2018-12-02T19:06:40.399Z,7.45
2018-12-02T19:09:11.366Z,7.70
2018-12-02T19:11:40.272Z,7.45
2018-12-02T19:14:09.084Z,6.97
2018-12-02T19:16:39.397Z,7.20
2018-12-02T19:19:08.544Z,7.10
2018-12-02T19:21:37.158Z,7.20
2018-12-02T19:24:06.702Z,7.42
2018-12-02T19:26:36.884Z,6.95
2018-12-02T19:29:06.241Z,7.10
2018-12-02T19:31:35.148Z,7.12
2018-12-02T19:34:04.659Z,7.20
2018-12-02T19:36:34.732Z,7.50
2018-12-02T19:39:03.789Z,7.22
2018-12-02T19:41:34.594Z,7.47
2018-12-02T19:44:03.948Z,7.25
2018-12-02T19:46:33.487Z,7.53
2018-12-02T19:49:02.535Z,6.83
2018-12-02T19:51:31.623Z,6.90
2018-12-02T19:54:00.404Z,7.12
2018-12-02T19:56:30.837Z,6.75
2018-12-02T19:58:59.790Z,6.35
2018-12-02T20:01:29.094Z,6.55
2018-12-02T20:03:58.047Z,7.25
2018-12-02T20:06:27.319Z,6.50
2018-12-02T20:08:56.976Z,6.62
2018-12-02T20:11:26.246Z,6.70
2018-12-02T20:13:55.298Z,6.60
2018-12-02T20:16:25.574Z,6.70
2018-12-02T20:18:54.347Z,6.53
2018-12-02T20:21:25.149Z,6.65
2018-12-02T20:24:00.004Z,6.60
2018-12-02T20:26:29.198Z,6.15
2018-12-02T20:28:58.336Z,6.33
2018-12-02T20:31:27.939Z,6.35
2018-12-02T20:33:57.948Z,6.47
2018-12-02T20:36:26.752Z,6.53
2018-12-02T20:38:56.507Z,6.15
2018-12-02T20:41:27.100Z,6.35
2018-12-02T20:43:55.769Z,6.45
2018-12-02T20:46:24.723Z,6.28
2018-12-02T20:48:53.935Z,6.28
2018-12-02T20:51:23.454Z,6.15
2018-12-02T20:53:52.285Z,5.70
2018-12-02T20:56:22.572Z,6.17
2018-12-02T20:58:51.207Z,5.85
2018-12-02T21:01:21.147Z,6.22
2018-12-02T21:03:50.016Z,5.72
2018-12-02T21:06:20.551Z,5.70
2018-12-02T21:08:49.516Z,6.20
2018-12-02T21:11:18.625Z,5.60
2018-12-02T21:13:47.478Z,6.45
2018-12-02T21:16:16.166Z,6.10
2018-12-02T21:18:45.092Z,5.87
2018-12-02T21:21:14.372Z,5.45
2018-12-02T21:23:43.220Z,6.12
2018-12-02T21:26:12.958Z,5.95
2018-12-02T21:28:41.920Z,5.85
2018-12-02T21:31:11.198Z,5.95
2018-12-02T21:33:39.847Z,5.87
2018-12-02T21:36:08.522Z,5.50
2018-12-02T21:38:38.704Z,6.20
2018-12-02T21:41:08.406Z,5.42
2018-12-02T21:43:37.569Z,5.35
2018-12-02T21:46:06.502Z,5.60
2018-12-02T21:48:35.672Z,5.65
2018-12-02T21:51:04.740Z,5.62
2018-12-02T21:53:34.231Z,5.60
2018-12-02T21:56:04.217Z,5.50
2018-12-02T21:58:33.300Z,5.70
2018-12-02T22:01:07.370Z,5.60
2018-12-02T22:03:36.579Z,5.70
2018-12-02T22:06:07.050Z,5.58
2018-12-02T22:08:36.390Z,5.78
2018-12-02T22:11:05.838Z,5.28
2018-12-02T22:13:35.125Z,5.30
2018-12-02T22:16:04.166Z,5.20
2018-12-02T22:18:33.189Z,5.40
2018-12-02T22:21:02.078Z,5.58
2018-12-02T22:23:31.104Z,5.45
2018-12-02T22:26:00.356Z,5.40
2018-12-02T22:28:31.874Z,5.55
2018-12-02T22:31:01.401Z,5.22
2018-12-02T22:33:31.373Z,4.85
2018-12-02T22:36:00.354Z,5.25
2018-12-02T22:38:29.320Z,5.28
2018-12-02T22:40:58.183Z,4.67
2018-12-02T22:43:26.904Z,5.20
2018-12-02T22:45:55.922Z,4.90
2018-12-02T22:48:26.628Z,4.92
2018-12-02T22:50:56.130Z,5.08
2018-12-02T22:53:24.909Z,5.10
2018-12-02T22:55:53.993Z,5.22
2018-12-02T22:58:23.409Z,5.45
2018-12-02T23:00:58.345Z,5.00
2018-12-02T23:03:26.688Z,4.80
2018-12-02T23:05:56.335Z,4.67
2018-12-02T23:08:25.201Z,4.87
2018-12-02T23:10:55.205Z,4.75
2018-12-02T23:13:23.887Z,5.00
2018-12-02T23:15:52.687Z,4.50
2018-12-02T23:18:23.647Z,4.95
2018-12-02T23:20:53.500Z,4.85
2018-12-02T23:23:22.124Z,5.17
2018-12-02T23:25:50.907Z,4.62
2018-12-02T23:28:19.791Z,4.87
2018-12-02T23:30:48.560Z,4.40
2018-12-02T23:33:17.030Z,4.62
2018-12-02T23:35:45.609Z,4.87
2018-12-02T23:38:14.365Z,4.67
2018-12-02T23:40:43.050Z,4.47
2018-12-02T23:43:11.668Z,4.40
2018-12-02T23:45:40.423Z,4.85
2018-12-02T23:48:09.081Z,4.42
2018-12-02T23:50:37.714Z,4.40
2018-12-02T23:53:06.556Z,4.47
2018-12-02T23:55:36.928Z,4.33
2018-12-02T23:58:05.643Z,4.60
